Raven's Dance — WDF7230 — position and weather

sailwx.info

Track history (hours):
 
Tides and Currents Weather Stations Pressure Air Temp Water Temp Dewpoint Dewpoint Depression Visibility Wind Speed Wind Dir Waves Ship Positions

Raven's Dance

Owner: Lassila, Donald A, Gig Harbor, WA. More information available from US FCC via Universal Licensing System and Coast Guard Vessel Documentation Center.

Last reported at 2017-Oct-29 08:57 UTC. Time now 2017-Nov-23 18:19 UTC.
Position N 47°32' W 122°39'.
Warning: this ship's position is 25 days out of date.

Length 14 m.

Type: Sailing vessel. MMSI: 367482370.

Date/timePositionNaut miles runAvg speedWind from/ knotsBaromVisibWave heightAir tempDewpointWater temp
2017-Oct-29 08:57N 47°32' W 122°39'0 0.0
2017-Oct-29 06:41N 47°32' W 122°39'0 0.0
2017-Oct-29 06:20N 47°32' W 122°39'0 0.0
2017-Oct-29 05:14N 47°32' W 122°39'3 0.1
2017-Oct-28 00:26N 47°34' W 122°36'2 5.1
2017-Oct-28 00:00N 47°36' W 122°33'3 5.2
2017-Oct-27 23:30N 47°33' W 122°31'3 5.2
2017-Oct-27 23:00N 47°31' W 122°29'3 6.2
2017-Oct-27 22:31N 47°34' W 122°28'2 3.5
2017-Oct-27 22:00N 47°36' W 122°28'3 6.0
2017-Oct-27 21:30N 47°39' W 122°29'3 5.9
2017-Oct-27 21:00N 47°42' W 122°28'2 4.1
2017-Oct-27 20:30N 47°43' W 122°30'6 2.9
2017-Oct-27 18:25N 47°38' W 122°35'2 4.4
2017-Oct-27 17:59N 47°37' W 122°35'1 2.5
2017-Oct-27 17:30N 47°35' W 122°35'1 1.5
2017-Oct-27 17:00N 47°35' W 122°36'1 1.1
2017-Oct-27 16:29N 47°34' W 122°36'1 1.3
2017-Oct-27 15:40N 47°33' W 122°37'  
Track history (hours):
 
Tides and Currents Weather Stations Pressure Air Temp Water Temp Dewpoint Dewpoint Depression Visibility Wind Speed Wind Dir Waves Ship Positions

Raven's Dance

Owner: Lassila, Donald A, Gig Harbor, WA. More information available from US FCC via Universal Licensing System and Coast Guard Vessel Documentation Center.

Last reported at 2017-Oct-29 08:57 UTC. Time now 2017-Nov-23 18:19 UTC.
Position N 47°32' W 122°39'.
Warning: this ship's position is 25 days out of date.

Length 14 m.

Type: Sailing vessel. MMSI: 367482370.

Date/timePositionNaut miles runAvg speedWind from/ knotsBaromVisibWave heightAir tempDewpointWater temp
2017-Oct-29 08:57N 47°32' W 122°39'0 0.0
2017-Oct-29 06:41N 47°32' W 122°39'0 0.0
2017-Oct-29 06:20N 47°32' W 122°39'0 0.0
2017-Oct-29 05:14N 47°32' W 122°39'3 0.1
2017-Oct-28 00:26N 47°34' W 122°36'2 5.1
2017-Oct-28 00:00N 47°36' W 122°33'3 5.2
2017-Oct-27 23:30N 47°33' W 122°31'3 5.2
2017-Oct-27 23:00N 47°31' W 122°29'3 6.2
2017-Oct-27 22:31N 47°34' W 122°28'2 3.5
2017-Oct-27 22:00N 47°36' W 122°28'3 6.0
2017-Oct-27 21:30N 47°39' W 122°29'3 5.9
2017-Oct-27 21:00N 47°42' W 122°28'2 4.1
2017-Oct-27 20:30N 47°43' W 122°30'6 2.9
2017-Oct-27 18:25N 47°38' W 122°35'2 4.4
2017-Oct-27 17:59N 47°37' W 122°35'1 2.5
2017-Oct-27 17:30N 47°35' W 122°35'1 1.5
2017-Oct-27 17:00N 47°35' W 122°36'1 1.1
2017-Oct-27 16:29N 47°34' W 122°36'1 1.3
2017-Oct-27 15:40N 47°33' W 122°37'  

Dump ship's entire track history